createdAt,value
2018-12-19T00:00:08.254Z,93.90
2018-12-19T00:01:08.225Z,97.10
2018-12-19T00:02:08.183Z,91.30
2018-12-19T00:03:08.147Z,90.30
2018-12-19T00:04:08.108Z,99.60
2018-12-19T00:05:08.072Z,100.10
2018-12-19T00:06:08.035Z,88.30
2018-12-19T00:07:08.001Z,94.40
2018-12-19T00:08:07.962Z,96.60
2018-12-19T00:09:07.925Z,95.20
2018-12-19T00:10:07.888Z,92.00
2018-12-19T00:11:07.854Z,88.60
2018-12-19T00:12:07.818Z,93.30
2018-12-19T00:13:07.778Z,92.80
2018-12-19T00:14:07.742Z,85.90
2018-12-19T00:15:07.705Z,84.60
2018-12-19T00:16:07.669Z,83.90
2018-12-19T00:17:07.630Z,87.30
2018-12-19T00:18:07.595Z,87.70
2018-12-19T00:19:07.558Z,76.50
2018-12-19T00:20:07.522Z,82.40
2018-12-19T00:21:07.484Z,75.80
2018-12-19T00:22:07.449Z,80.60
2018-12-19T00:23:07.413Z,76.40
2018-12-19T00:24:07.374Z,75.80
2018-12-19T00:25:07.338Z,76.40
2018-12-19T00:26:07.302Z,75.00
2018-12-19T00:27:07.264Z,78.60
2018-12-19T00:28:07.226Z,77.90
2018-12-19T00:29:07.191Z,79.40
2018-12-19T00:30:07.156Z,73.40
2018-12-19T00:31:07.117Z,85.80
2018-12-19T00:32:07.080Z,78.70
2018-12-19T00:33:07.045Z,69.60
2018-12-19T00:34:07.007Z,82.20
2018-12-19T00:35:06.971Z,80.40
2018-12-19T00:36:06.933Z,78.00
2018-12-19T00:37:06.897Z,78.20
2018-12-19T00:38:06.860Z,74.60
2018-12-19T00:39:09.667Z,77.50
2018-12-19T00:40:06.786Z,73.70
2018-12-19T00:41:06.750Z,77.70
2018-12-19T00:42:06.716Z,70.70
2018-12-19T00:43:06.676Z,79.80
2018-12-19T00:44:06.639Z,72.50
2018-12-19T00:45:06.602Z,70.80
2018-12-19T00:46:06.636Z,78.80
2018-12-19T00:47:06.530Z,80.60
2018-12-19T00:48:06.493Z,72.30
2018-12-19T00:49:06.456Z,72.20
2018-12-19T00:50:06.421Z,79.00
2018-12-19T00:51:06.383Z,71.20
2018-12-19T00:52:06.345Z,76.20
2018-12-19T00:53:06.310Z,71.50
2018-12-19T00:54:06.273Z,69.30
2018-12-19T00:55:06.236Z,68.10
2018-12-19T00:56:06.199Z,74.10
2018-12-19T00:57:06.162Z,69.90
2018-12-19T00:58:06.125Z,73.60
2018-12-19T00:59:06.088Z,69.50
2018-12-19T01:00:06.055Z,74.60
2018-12-19T01:01:06.017Z,75.40
2018-12-19T01:02:05.978Z,76.40
2018-12-19T01:03:05.947Z,71.70
2018-12-19T01:04:05.904Z,68.30
2018-12-19T01:05:05.867Z,66.70
2018-12-19T01:06:05.832Z,72.70
2018-12-19T01:07:05.795Z,74.90
2018-12-19T01:08:05.760Z,66.40
2018-12-19T01:09:05.721Z,74.60
2018-12-19T01:10:05.683Z,73.30
2018-12-19T01:11:05.653Z,70.40
2018-12-19T01:12:05.610Z,71.60
2018-12-19T01:13:05.574Z,72.10
2018-12-19T01:14:05.536Z,73.50
2018-12-19T01:15:05.502Z,79.00
2018-12-19T01:16:05.462Z,74.90
2018-12-19T01:17:05.426Z,72.40
2018-12-19T01:18:05.390Z,79.20
2018-12-19T01:19:05.353Z,74.90
2018-12-19T01:20:05.318Z,79.80
2018-12-19T01:21:05.283Z,79.40
2018-12-19T01:22:05.242Z,79.50
2018-12-19T01:23:05.206Z,85.30
2018-12-19T01:24:05.168Z,78.00
2018-12-19T01:25:05.131Z,74.30
2018-12-19T01:26:05.104Z,76.90
2018-12-19T01:27:05.059Z,81.90
2018-12-19T01:28:05.021Z,82.70
2018-12-19T01:29:04.984Z,78.90
2018-12-19T01:30:04.950Z,85.30
2018-12-19T01:31:04.912Z,76.30
2018-12-19T01:32:04.873Z,84.10
2018-12-19T01:33:04.868Z,77.60
2018-12-19T01:34:04.802Z,79.90
2018-12-19T01:35:04.763Z,85.70
2018-12-19T01:36:04.726Z,80.00
2018-12-19T01:37:04.690Z,77.90
2018-12-19T01:38:04.652Z,76.30
2018-12-19T01:39:04.617Z,76.10
2018-12-19T01:40:04.578Z,74.80
2018-12-19T01:41:04.541Z,75.70
2018-12-19T01:42:04.505Z,84.90
2018-12-19T01:43:04.470Z,71.60
2018-12-19T01:44:04.431Z,76.60
2018-12-19T01:45:04.394Z,76.10
2018-12-19T01:46:04.356Z,75.70
2018-12-19T01:47:04.321Z,78.90
2018-12-19T01:48:04.282Z,76.30
2018-12-19T01:49:04.247Z,88.20
2018-12-19T01:50:04.216Z,75.70
2018-12-19T01:51:04.176Z,80.90
2018-12-19T01:52:04.135Z,74.80
2018-12-19T01:53:04.098Z,76.40
2018-12-19T01:54:04.061Z,80.40
2018-12-19T01:55:04.025Z,75.50
2018-12-19T01:56:03.988Z,77.70
2018-12-19T01:57:03.955Z,77.60
2018-12-19T01:58:03.914Z,76.70
2018-12-19T01:59:03.878Z,79.90
2018-12-19T02:00:03.840Z,76.00
2018-12-19T02:01:03.802Z,80.90
2018-12-19T02:02:03.765Z,74.60
2018-12-19T02:03:03.730Z,73.80
2018-12-19T02:04:03.692Z,74.60
2018-12-19T02:05:03.654Z,74.20
2018-12-19T02:06:03.618Z,73.20
2018-12-19T02:07:03.583Z,80.00
2018-12-19T02:08:03.542Z,79.70
2018-12-19T02:09:03.507Z,81.20
2018-12-19T02:10:03.470Z,78.10
2018-12-19T02:11:03.435Z,85.80
2018-12-19T02:12:03.395Z,83.40
2018-12-19T02:13:03.359Z,80.60
2018-12-19T02:14:03.324Z,78.80
2018-12-19T02:15:03.285Z,72.90
2018-12-19T02:16:03.249Z,72.30
2018-12-19T02:17:03.211Z,79.50
2018-12-19T02:18:03.174Z,77.50
2018-12-19T02:19:03.137Z,80.90
2018-12-19T02:20:03.099Z,82.80
2018-12-19T02:21:03.064Z,75.90
2018-12-19T02:22:03.026Z,81.10
2018-12-19T02:23:02.990Z,81.30
2018-12-19T02:24:02.951Z,75.40
2018-12-19T02:25:02.916Z,73.60
2018-12-19T02:26:02.879Z,75.60
2018-12-19T02:27:02.841Z,71.70
2018-12-19T02:28:02.804Z,76.60
2018-12-19T02:29:02.767Z,74.80
2018-12-19T02:30:02.749Z,75.20
2018-12-19T02:31:02.695Z,75.90
2018-12-19T02:32:02.657Z,74.00
2018-12-19T02:33:02.620Z,81.20
2018-12-19T02:34:02.583Z,73.00
2018-12-19T02:35:02.550Z,78.40
2018-12-19T02:36:02.508Z,74.90
2018-12-19T02:37:02.472Z,80.30
2018-12-19T02:38:02.434Z,76.40
2018-12-19T02:39:02.396Z,78.70
2018-12-19T02:40:02.363Z,80.00
2018-12-19T02:41:02.333Z,77.80
2018-12-19T02:42:02.290Z,75.80
2018-12-19T02:43:02.342Z,79.30
2018-12-19T02:44:02.213Z,81.50
2018-12-19T02:45:02.177Z,71.20
2018-12-19T02:46:02.144Z,78.10
2018-12-19T02:47:02.102Z,80.10
2018-12-19T02:48:02.063Z,78.00
2018-12-19T02:49:02.027Z,84.70
2018-12-19T02:50:02.182Z,77.30
2018-12-19T02:51:01.955Z,77.40
2018-12-19T02:52:01.917Z,82.90
2018-12-19T02:53:01.880Z,78.10
2018-12-19T02:54:01.842Z,85.90
2018-12-19T02:55:01.806Z,82.50
2018-12-19T02:56:01.769Z,80.20
2018-12-19T02:57:01.732Z,84.90
2018-12-19T02:58:01.693Z,83.90
2018-12-19T02:59:01.659Z,81.40
2018-12-19T03:00:01.624Z,84.40
2018-12-19T03:01:01.583Z,82.70
2018-12-19T03:02:01.547Z,80.20
2018-12-19T03:03:01.514Z,79.60
2018-12-19T03:04:01.481Z,81.00
2018-12-19T03:05:01.437Z,79.30
2018-12-19T03:06:01.408Z,84.70
2018-12-19T03:07:01.360Z,84.40
2018-12-19T03:08:01.323Z,81.10
2018-12-19T03:09:01.287Z,84.70
2018-12-19T03:10:01.251Z,86.90
2018-12-19T03:11:01.213Z,89.80
2018-12-19T03:12:01.179Z,88.50
2018-12-19T03:13:01.138Z,88.90
2018-12-19T03:14:01.103Z,101.80
2018-12-19T03:15:01.071Z,94.80
2018-12-19T03:16:01.026Z,92.00
2018-12-19T03:17:00.996Z,105.70
2018-12-19T03:18:00.954Z,97.00
2018-12-19T03:19:00.917Z,101.30
2018-12-19T03:20:00.884Z,95.50
2018-12-19T03:21:00.842Z,98.60
2018-12-19T03:22:00.807Z,97.70
2018-12-19T03:23:00.774Z,99.10
2018-12-19T03:24:00.734Z,96.40
2018-12-19T03:25:00.697Z,100.80
2018-12-19T03:26:00.660Z,97.20
2018-12-19T03:27:00.622Z,97.30
2018-12-19T03:28:00.586Z,101.20
2018-12-19T03:29:00.549Z,100.90
2018-12-19T03:30:00.666Z,99.20
2018-12-19T03:31:00.477Z,94.40
2018-12-19T03:32:00.439Z,94.50
2018-12-19T03:33:00.402Z,101.70
2018-12-19T03:34:00.366Z,95.70
2018-12-19T03:35:00.330Z,99.90
2018-12-19T03:36:00.397Z,101.20
2018-12-19T03:37:00.256Z,107.60
2018-12-19T03:38:00.219Z,100.30
2018-12-19T03:39:00.181Z,105.10
2018-12-19T03:40:00.147Z,102.40
2018-12-19T03:41:00.107Z,96.60
2018-12-19T03:42:00.072Z,96.50
2018-12-19T03:43:00.033Z,94.20
2018-12-19T03:43:59.995Z,95.50
2018-12-19T03:44:59.958Z,97.90
2018-12-19T03:45:59.921Z,98.30
2018-12-19T03:46:59.885Z,93.40
2018-12-19T03:47:59.847Z,97.90
2018-12-19T03:48:59.811Z,97.80
2018-12-19T03:49:59.776Z,96.70
2018-12-19T03:50:59.737Z,100.00
2018-12-19T03:51:59.701Z,99.10
2018-12-19T03:52:59.665Z,95.70
2018-12-19T03:53:59.626Z,97.10
2018-12-19T03:54:59.590Z,101.00
2018-12-19T03:55:59.552Z,98.60
2018-12-19T03:56:59.516Z,106.10
2018-12-19T03:57:59.481Z,108.10
2018-12-19T03:58:59.444Z,102.60
2018-12-19T03:59:59.407Z,96.40
2018-12-19T04:00:59.372Z,97.30
2018-12-19T04:01:59.333Z,99.00
2018-12-19T04:02:59.297Z,94.50
2018-12-19T04:03:59.259Z,98.50
2018-12-19T04:04:59.226Z,96.60
2018-12-19T04:05:59.186Z,92.70
2018-12-19T04:06:59.150Z,90.30
2018-12-19T04:07:59.115Z,91.80
2018-12-19T04:08:59.076Z,96.70
2018-12-19T04:09:59.041Z,86.70
2018-12-19T04:10:59.002Z,90.70
2018-12-19T04:11:58.965Z,90.50
2018-12-19T04:12:58.930Z,89.80
2018-12-19T04:13:58.893Z,83.60
2018-12-19T04:14:58.859Z,89.50
2018-12-19T04:15:58.823Z,97.90
2018-12-19T04:16:58.783Z,89.00
2018-12-19T04:17:58.745Z,83.00
2018-12-19T04:18:58.715Z,95.80
2018-12-19T04:19:58.672Z,92.00
2018-12-19T04:20:58.634Z,92.60
2018-12-19T04:21:58.602Z,90.50
2018-12-19T04:22:58.563Z,89.80
2018-12-19T04:23:58.527Z,89.40
2018-12-19T04:24:58.488Z,90.20
2018-12-19T04:25:58.456Z,95.10
2018-12-19T04:26:58.416Z,97.60
2018-12-19T04:27:58.378Z,91.30
2018-12-19T04:28:58.344Z,94.40
2018-12-19T04:29:58.305Z,84.80
2018-12-19T04:30:58.271Z,94.90
2018-12-19T04:31:58.232Z,88.50
2018-12-19T04:32:58.197Z,88.40
2018-12-19T04:33:58.157Z,91.00
2018-12-19T04:34:58.125Z,95.00
2018-12-19T04:35:58.084Z,93.20
2018-12-19T04:36:58.048Z,91.50
2018-12-19T04:37:58.012Z,91.40
2018-12-19T04:38:57.976Z,96.20
2018-12-19T04:40:05.143Z,94.50
2018-12-19T04:40:57.904Z,86.50
2018-12-19T04:41:57.865Z,86.80
2018-12-19T04:42:57.831Z,86.80
2018-12-19T04:43:57.791Z,101.70
2018-12-19T04:44:57.763Z,91.50
2018-12-19T04:45:57.719Z,95.90
2018-12-19T04:46:57.682Z,96.70
2018-12-19T04:47:57.644Z,91.40
2018-12-19T04:48:57.608Z,93.60
2018-12-19T04:49:57.572Z,92.40
2018-12-19T04:50:57.535Z,101.00
2018-12-19T04:51:57.499Z,91.00
2018-12-19T04:52:57.462Z,95.60
2018-12-19T04:53:57.426Z,89.90
2018-12-19T04:54:57.389Z,88.00
2018-12-19T04:55:57.353Z,93.90
2018-12-19T04:56:57.316Z,85.50
2018-12-19T04:57:57.280Z,86.60
2018-12-19T04:58:57.242Z,85.40
2018-12-19T04:59:57.206Z,77.70
2018-12-19T05:00:57.171Z,86.90
2018-12-19T05:01:57.132Z,87.00
2018-12-19T05:02:57.097Z,81.60
2018-12-19T05:03:57.058Z,83.00
2018-12-19T05:04:57.023Z,87.40
2018-12-19T05:05:56.989Z,84.00
2018-12-19T05:06:56.951Z,91.80
2018-12-19T05:07:56.912Z,85.50
2018-12-19T05:08:56.876Z,82.10
2018-12-19T05:09:56.838Z,80.90
2018-12-19T05:10:56.804Z,80.40
2018-12-19T05:11:56.766Z,83.80
2018-12-19T05:12:56.729Z,81.40
2018-12-19T05:13:56.694Z,87.30
2018-12-19T05:14:56.657Z,74.90
2018-12-19T05:15:56.621Z,76.80
2018-12-19T05:16:56.588Z,76.40
2018-12-19T05:17:56.547Z,73.30
2018-12-19T05:18:56.511Z,75.80
2018-12-19T05:19:56.481Z,78.10
2018-12-19T05:20:56.440Z,78.70
2018-12-19T05:21:56.401Z,80.00
2018-12-19T05:22:56.364Z,70.90
2018-12-19T05:23:56.326Z,70.80
2018-12-19T05:24:56.292Z,69.60
2018-12-19T05:25:56.254Z,68.90
2018-12-19T05:26:56.218Z,65.10
2018-12-19T05:27:56.182Z,73.60
2018-12-19T05:28:56.145Z,72.00
2018-12-19T05:29:56.110Z,69.70
2018-12-19T05:30:56.073Z,79.30
2018-12-19T05:31:56.035Z,70.30
2018-12-19T05:32:56.000Z,69.60
2018-12-19T05:33:55.964Z,71.30
2018-12-19T05:34:55.928Z,70.20
2018-12-19T05:35:55.889Z,75.10
2018-12-19T05:36:55.853Z,67.90
2018-12-19T05:37:55.816Z,73.50
2018-12-19T05:38:55.781Z,73.50
2018-12-19T05:39:55.744Z,69.50
2018-12-19T05:40:55.706Z,72.10
2018-12-19T05:41:55.670Z,71.10
2018-12-19T05:42:55.635Z,70.50
2018-12-19T05:43:55.596Z,64.10
2018-12-19T05:44:55.562Z,67.20
2018-12-19T05:45:55.524Z,66.10
2018-12-19T05:46:55.488Z,64.90
2018-12-19T05:47:55.452Z,72.00
2018-12-19T05:48:55.414Z,69.30
2018-12-19T05:49:55.379Z,69.20
2018-12-19T05:50:55.343Z,66.80
2018-12-19T05:51:55.304Z,66.90
2018-12-19T05:52:55.268Z,67.40
2018-12-19T05:53:55.232Z,64.80
2018-12-19T05:54:55.199Z,63.70
2018-12-19T05:55:55.159Z,67.70
2018-12-19T05:56:55.123Z,72.20
2018-12-19T05:57:55.086Z,66.90
2018-12-19T05:58:55.052Z,64.00
2018-12-19T05:59:55.013Z,61.90
2018-12-19T06:00:54.977Z,59.10
2018-12-19T06:01:54.940Z,58.80
2018-12-19T06:02:54.903Z,58.60
2018-12-19T06:03:54.866Z,59.10
2018-12-19T06:04:54.830Z,58.30
2018-12-19T06:05:54.794Z,53.10
2018-12-19T06:06:54.815Z,57.90
2018-12-19T06:07:54.720Z,55.70
2018-12-19T06:08:54.686Z,52.60
2018-12-19T06:09:54.647Z,52.50
2018-12-19T06:10:54.610Z,50.50
2018-12-19T06:11:54.573Z,53.10
2018-12-19T06:12:54.537Z,51.80
2018-12-19T06:13:54.501Z,46.30
2018-12-19T06:14:54.467Z,51.40
2018-12-19T06:15:54.427Z,51.50
2018-12-19T06:16:54.391Z,51.00
2018-12-19T06:17:54.358Z,46.10
2018-12-19T06:18:54.320Z,53.10
2018-12-19T06:19:54.283Z,47.30
2018-12-19T06:20:54.246Z,51.00
2018-12-19T06:21:54.212Z,49.30
2018-12-19T06:22:54.173Z,55.30
2018-12-19T06:23:54.136Z,49.60
2018-12-19T06:24:54.099Z,46.80
2018-12-19T06:25:54.064Z,47.40
2018-12-19T06:26:54.027Z,51.50
2018-12-19T06:27:53.991Z,48.40
2018-12-19T06:28:53.955Z,47.40
2018-12-19T06:29:53.918Z,49.20
2018-12-19T06:30:53.883Z,52.20
2018-12-19T06:31:53.846Z,51.70
2018-12-19T06:32:53.809Z,50.10
2018-12-19T06:33:53.773Z,45.10
2018-12-19T06:34:53.740Z,49.40
2018-12-19T06:35:53.701Z,48.70
2018-12-19T06:36:53.667Z,47.80
2018-12-19T06:37:53.632Z,51.60
2018-12-19T06:38:53.596Z,50.00
2018-12-19T06:39:53.556Z,50.50
2018-12-19T06:40:53.521Z,47.30
2018-12-19T06:41:53.484Z,46.40
2018-12-19T06:42:53.451Z,48.40
2018-12-19T06:43:53.412Z,48.70
2018-12-19T06:44:53.377Z,50.10
2018-12-19T06:45:53.340Z,50.10
2018-12-19T06:46:53.307Z,46.10
2018-12-19T06:47:53.267Z,45.50
2018-12-19T06:48:53.231Z,47.70
2018-12-19T06:49:53.195Z,49.50
2018-12-19T06:50:53.160Z,47.90
2018-12-19T06:51:53.125Z,49.70
2018-12-19T06:52:53.087Z,47.00
2018-12-19T06:53:53.052Z,46.70
2018-12-19T06:54:53.016Z,49.30
2018-12-19T06:55:52.978Z,52.60
2018-12-19T06:56:52.944Z,45.80
2018-12-19T06:57:52.908Z,48.80
2018-12-19T06:58:52.871Z,46.40
2018-12-19T06:59:52.864Z,49.50
2018-12-19T07:00:52.799Z,44.80
2018-12-19T07:01:52.764Z,48.60
2018-12-19T07:02:52.727Z,44.40
2018-12-19T07:03:52.690Z,47.30
2018-12-19T07:04:52.656Z,45.80
2018-12-19T07:05:52.621Z,42.00
2018-12-19T07:06:52.587Z,44.60
2018-12-19T07:07:52.547Z,46.60
2018-12-19T07:08:52.512Z,48.80
2018-12-19T07:09:52.476Z,44.70
2018-12-19T07:10:52.442Z,46.10
2018-12-19T07:11:52.406Z,45.40
2018-12-19T07:12:52.369Z,49.90
2018-12-19T07:13:52.331Z,48.00
2018-12-19T07:14:52.297Z,42.20
2018-12-19T07:15:52.258Z,43.80
2018-12-19T07:16:52.223Z,44.20
2018-12-19T07:17:52.189Z,44.10
2018-12-19T07:18:52.152Z,47.10
2018-12-19T07:19:52.123Z,44.40
2018-12-19T07:20:52.081Z,45.00
2018-12-19T07:21:52.044Z,56.40
2018-12-19T07:22:52.014Z,46.30
2018-12-19T07:23:51.972Z,48.00
2018-12-19T07:24:51.941Z,45.90
2018-12-19T07:25:51.907Z,41.50
2018-12-19T07:26:51.865Z,48.50
2018-12-19T07:27:51.832Z,49.50
2018-12-19T07:28:51.794Z,46.30
2018-12-19T07:29:51.757Z,48.00
2018-12-19T07:30:51.723Z,49.00
2018-12-19T07:31:51.685Z,46.90
2018-12-19T07:32:51.650Z,42.10
2018-12-19T07:33:51.618Z,42.30
2018-12-19T07:34:51.579Z,47.30
2018-12-19T07:35:51.543Z,52.10
2018-12-19T07:36:51.507Z,52.30
2018-12-19T07:37:51.471Z,43.20
2018-12-19T07:38:51.436Z,47.90
2018-12-19T07:39:51.399Z,47.20
2018-12-19T07:40:51.367Z,46.70
2018-12-19T07:41:51.329Z,45.00
2018-12-19T07:42:51.297Z,47.10
2018-12-19T07:43:51.258Z,46.90
2018-12-19T07:44:51.220Z,38.90
2018-12-19T07:45:51.187Z,41.50
2018-12-19T07:46:51.218Z,36.00
2018-12-19T07:47:51.115Z,37.70
2018-12-19T07:48:51.081Z,42.00
2018-12-19T07:49:51.043Z,43.90
2018-12-19T07:50:51.009Z,43.00
2018-12-19T07:51:50.971Z,43.60
2018-12-19T07:52:50.935Z,44.30
2018-12-19T07:53:50.900Z,42.50
2018-12-19T07:54:50.865Z,40.60
2018-12-19T07:55:50.828Z,37.80
2018-12-19T07:56:50.792Z,35.50
2018-12-19T07:57:50.757Z,36.90
2018-12-19T07:58:50.722Z,35.70
2018-12-19T07:59:50.685Z,36.80
2018-12-19T08:00:50.651Z,39.50
2018-12-19T08:01:50.615Z,34.90
2018-12-19T08:02:50.579Z,36.30
2018-12-19T08:03:50.542Z,34.20
2018-12-19T08:04:50.511Z,35.10
2018-12-19T08:05:50.472Z,35.20
2018-12-19T08:06:50.442Z,33.60
2018-12-19T08:07:50.401Z,34.70
2018-12-19T08:08:50.363Z,34.50
2018-12-19T08:09:50.329Z,31.80
2018-12-19T08:10:52.378Z,32.60
2018-12-19T08:11:50.257Z,32.90
2018-12-19T08:12:50.221Z,31.50
2018-12-19T08:13:50.185Z,34.00
2018-12-19T08:14:50.150Z,34.20
2018-12-19T08:15:50.115Z,35.50
2018-12-19T08:16:50.078Z,32.30
2018-12-19T08:17:50.042Z,32.70
2018-12-19T08:18:50.008Z,34.40
2018-12-19T08:19:49.971Z,33.00
2018-12-19T08:20:49.937Z,31.30
2018-12-19T08:21:49.901Z,32.10
2018-12-19T08:22:49.866Z,33.40
2018-12-19T08:23:49.829Z,33.10
2018-12-19T08:24:49.793Z,33.00
2018-12-19T08:25:49.758Z,32.70
2018-12-19T08:26:49.723Z,32.60
2018-12-19T08:27:49.686Z,32.80
2018-12-19T08:28:49.651Z,34.00
2018-12-19T08:29:49.616Z,31.80
2018-12-19T08:30:49.580Z,32.00
2018-12-19T08:31:49.543Z,32.50
2018-12-19T08:32:49.510Z,29.90
2018-12-19T08:33:49.472Z,33.50
2018-12-19T08:34:49.436Z,32.70
2018-12-19T08:35:49.401Z,28.80
2018-12-19T08:36:49.365Z,33.40
2018-12-19T08:37:49.331Z,31.40
2018-12-19T08:38:49.296Z,29.60
2018-12-19T08:39:49.258Z,29.60
2018-12-19T08:40:49.225Z,29.10
2018-12-19T08:41:49.188Z,31.50
2018-12-19T08:42:49.152Z,30.20
2018-12-19T08:43:49.115Z,30.60
2018-12-19T08:44:49.081Z,28.60
2018-12-19T08:45:49.045Z,35.20
2018-12-19T08:46:49.011Z,30.90
2018-12-19T08:47:48.975Z,30.60
2018-12-19T08:48:48.940Z,30.80
2018-12-19T08:49:48.903Z,32.80
2018-12-19T08:50:48.868Z,30.20
2018-12-19T08:51:48.832Z,30.90
2018-12-19T08:52:48.796Z,30.80
2018-12-19T08:53:48.762Z,30.50
2018-12-19T08:54:48.726Z,29.60
2018-12-19T08:55:48.689Z,28.70
2018-12-19T08:56:48.656Z,32.40
2018-12-19T08:57:48.620Z,35.70
2018-12-19T08:58:48.583Z,35.20
2018-12-19T08:59:48.548Z,31.10
2018-12-19T09:00:48.514Z,29.10
2018-12-19T09:01:48.478Z,31.20
2018-12-19T09:02:48.442Z,30.40
2018-12-19T09:03:48.406Z,32.70
2018-12-19T09:04:48.371Z,28.10
2018-12-19T09:05:48.336Z,28.50
2018-12-19T09:06:48.303Z,27.80
2018-12-19T09:07:48.264Z,28.10
2018-12-19T09:08:48.231Z,27.80
2018-12-19T09:09:48.196Z,27.30
2018-12-19T09:10:48.159Z,30.10
2018-12-19T09:11:48.124Z,26.00
2018-12-19T09:12:48.088Z,25.10
2018-12-19T09:13:48.053Z,27.20
2018-12-19T09:14:48.021Z,28.80
2018-12-19T09:15:47.982Z,26.90
2018-12-19T09:16:47.947Z,25.10
2018-12-19T09:17:47.913Z,27.80
2018-12-19T09:18:47.877Z,26.00
2018-12-19T09:19:47.843Z,25.80
2018-12-19T09:20:47.805Z,26.20
2018-12-19T09:21:47.772Z,26.90
2018-12-19T09:22:47.737Z,27.30
2018-12-19T09:23:47.699Z,27.10
2018-12-19T09:24:47.664Z,26.20
2018-12-19T09:25:47.630Z,27.60
2018-12-19T09:26:47.644Z,25.00
2018-12-19T09:27:47.559Z,26.30
2018-12-19T09:28:47.525Z,25.40
2018-12-19T09:29:47.489Z,27.20
2018-12-19T09:30:47.452Z,23.00
2018-12-19T09:31:47.418Z,25.80
2018-12-19T09:32:47.383Z,25.20
2018-12-19T09:33:47.347Z,23.80
2018-12-19T09:34:47.314Z,25.40
2018-12-19T09:35:47.278Z,25.10
2018-12-19T09:36:47.241Z,24.30
2018-12-19T09:37:47.207Z,25.30
2018-12-19T09:38:47.171Z,24.20
2018-12-19T09:39:47.137Z,22.20
2018-12-19T09:40:47.101Z,24.30
2018-12-19T09:41:47.066Z,24.40
2018-12-19T09:42:47.033Z,25.00
2018-12-19T09:43:46.996Z,24.60
2018-12-19T09:44:46.961Z,27.40
2018-12-19T09:45:46.927Z,22.00
2018-12-19T09:46:46.891Z,23.30
2018-12-19T09:47:46.855Z,22.40
2018-12-19T09:48:46.821Z,23.70
2018-12-19T09:49:46.786Z,20.80
2018-12-19T09:50:46.750Z,22.50
2018-12-19T09:51:46.715Z,21.50
2018-12-19T09:52:46.682Z,21.50
2018-12-19T09:53:46.645Z,22.10
2018-12-19T09:54:46.611Z,24.70
2018-12-19T09:55:46.576Z,25.60
2018-12-19T09:56:46.541Z,22.10
2018-12-19T09:57:46.505Z,22.10
2018-12-19T09:58:46.471Z,24.30
2018-12-19T09:59:46.435Z,22.50
2018-12-19T10:00:46.401Z,22.70
2018-12-19T10:01:46.365Z,21.70
2018-12-19T10:02:46.331Z,23.40
2018-12-19T10:03:46.295Z,21.80
2018-12-19T10:04:46.262Z,22.90
2018-12-19T10:05:46.226Z,25.80
2018-12-19T10:06:46.191Z,23.50
2018-12-19T10:07:46.156Z,23.30
2018-12-19T10:08:46.121Z,21.80
2018-12-19T10:09:46.086Z,24.00
2018-12-19T10:10:46.052Z,21.90
2018-12-19T10:11:46.016Z,22.80
2018-12-19T10:12:45.980Z,22.90
2018-12-19T10:13:45.945Z,23.80
2018-12-19T10:14:45.911Z,22.80
2018-12-19T10:15:45.882Z,22.90
2018-12-19T10:16:45.841Z,20.50
2018-12-19T10:17:45.806Z,23.80
2018-12-19T10:18:45.771Z,22.70
2018-12-19T10:19:45.735Z,23.10
2018-12-19T10:20:45.702Z,22.20
2018-12-19T10:21:45.667Z,26.40
2018-12-19T10:22:45.632Z,23.10
2018-12-19T10:23:45.597Z,21.10
2018-12-19T10:24:45.561Z,21.70
2018-12-19T10:25:45.527Z,21.50
2018-12-19T10:26:45.492Z,24.50
2018-12-19T10:27:45.458Z,22.30
2018-12-19T10:28:45.421Z,22.30
2018-12-19T10:29:45.387Z,24.40
2018-12-19T10:30:45.352Z,22.80
2018-12-19T10:31:45.317Z,24.10
2018-12-19T10:32:45.283Z,23.70
2018-12-19T10:33:45.249Z,30.30
2018-12-19T10:34:45.214Z,36.90
2018-12-19T10:35:45.178Z,25.90
2018-12-19T10:36:45.144Z,31.50
2018-12-19T10:37:45.110Z,43.80
2018-12-19T10:38:45.075Z,22.00
2018-12-19T10:39:45.045Z,26.30
2018-12-19T10:40:45.720Z,122.20
2018-12-19T10:41:44.970Z,43.80
2018-12-19T10:42:44.935Z,31.70
2018-12-19T10:43:44.900Z,30.90
2018-12-19T10:44:44.867Z,32.70
2018-12-19T10:45:44.833Z,31.50
2018-12-19T10:46:44.802Z,25.00
2018-12-19T10:47:44.763Z,25.90
2018-12-19T10:48:44.727Z,24.20
2018-12-19T10:49:44.694Z,26.30
2018-12-19T10:50:44.659Z,23.80
2018-12-19T10:51:44.623Z,24.40
2018-12-19T10:52:44.588Z,23.20
2018-12-19T10:53:44.555Z,23.00
2018-12-19T10:54:44.519Z,25.20
2018-12-19T10:55:44.484Z,23.90
2018-12-19T10:56:44.450Z,24.90
2018-12-19T10:57:44.418Z,25.30
2018-12-19T10:58:44.381Z,25.30
2018-12-19T10:59:44.347Z,23.70
2018-12-19T11:00:44.314Z,24.80
2018-12-19T11:01:44.277Z,26.30
2018-12-19T11:02:44.243Z,28.20
2018-12-19T11:03:44.210Z,24.20
2018-12-19T11:04:44.173Z,28.00
2018-12-19T11:05:44.138Z,28.10
2018-12-19T11:06:44.104Z,24.40
2018-12-19T11:07:44.069Z,25.60
2018-12-19T11:08:44.084Z,26.30
2018-12-19T11:09:44.001Z,24.50
2018-12-19T11:10:45.172Z,30.70
2018-12-19T11:11:43.930Z,26.80
2018-12-19T11:12:43.896Z,32.50
2018-12-19T11:13:43.862Z,26.30
2018-12-19T11:14:43.832Z,25.30
2018-12-19T11:15:43.790Z,29.40
2018-12-19T11:16:44.819Z,26.90
2018-12-19T11:17:43.722Z,27.40
2018-12-19T11:18:43.687Z,27.10
2018-12-19T11:19:43.652Z,26.70
2018-12-19T11:20:43.617Z,30.00
2018-12-19T11:21:43.590Z,32.90
2018-12-19T11:22:43.548Z,30.50
2018-12-19T11:23:43.513Z,36.00
2018-12-19T11:24:43.478Z,31.70
2018-12-19T11:25:43.444Z,31.00
2018-12-19T11:26:43.410Z,32.30
2018-12-19T11:27:43.373Z,30.10
2018-12-19T11:28:43.339Z,33.70
2018-12-19T11:29:43.306Z,29.00
2018-12-19T11:30:43.269Z,30.20
2018-12-19T11:31:43.234Z,31.70
2018-12-19T11:32:43.201Z,31.50
2018-12-19T11:33:43.165Z,29.40
2018-12-19T11:34:43.130Z,34.70
2018-12-19T11:35:43.100Z,33.30
2018-12-19T11:36:43.062Z,32.40
2018-12-19T11:37:43.025Z,33.60
2018-12-19T11:38:42.991Z,31.90
2018-12-19T11:39:42.955Z,31.70
2018-12-19T11:40:42.922Z,32.50
2018-12-19T11:41:42.885Z,33.80
2018-12-19T11:42:42.851Z,34.70
2018-12-19T11:43:42.816Z,32.70
2018-12-19T11:44:42.787Z,32.20
2018-12-19T11:45:42.746Z,33.00
2018-12-19T11:46:42.711Z,30.80
2018-12-19T11:47:42.677Z,37.60
2018-12-19T11:48:42.663Z,36.00
2018-12-19T11:49:42.610Z,34.50
2018-12-19T11:50:42.574Z,37.10
2018-12-19T11:51:42.538Z,37.60
2018-12-19T11:52:42.505Z,30.80
2018-12-19T11:53:42.467Z,32.50
2018-12-19T11:54:42.434Z,31.10
2018-12-19T11:55:42.397Z,35.20
2018-12-19T11:56:42.363Z,35.10
2018-12-19T11:57:42.329Z,30.00
2018-12-19T11:58:42.293Z,33.60
2018-12-19T11:59:42.257Z,37.10
2018-12-19T12:00:42.223Z,33.70
2018-12-19T12:01:42.192Z,33.20
2018-12-19T12:02:42.155Z,33.40
2018-12-19T12:03:42.118Z,31.10
2018-12-19T12:04:42.083Z,32.90
2018-12-19T12:05:42.049Z,34.90
2018-12-19T12:06:42.015Z,34.10
2018-12-19T12:07:41.979Z,33.80
2018-12-19T12:08:41.943Z,34.10
2018-12-19T12:09:41.910Z,33.40
2018-12-19T12:10:41.876Z,35.60
2018-12-19T12:11:45.591Z,38.90
2018-12-19T12:12:41.806Z,35.70
2018-12-19T12:13:42.673Z,32.60
2018-12-19T12:14:41.792Z,34.60
2018-12-19T12:15:41.700Z,34.80
2018-12-19T12:16:41.666Z,37.20
2018-12-19T12:17:41.630Z,34.60
2018-12-19T12:18:41.596Z,35.50
2018-12-19T12:19:41.559Z,33.60
2018-12-19T12:20:41.526Z,35.60
2018-12-19T12:21:41.491Z,35.90
2018-12-19T12:22:41.458Z,36.30
2018-12-19T12:23:47.147Z,38.90
2018-12-19T12:24:41.388Z,35.90
2018-12-19T12:25:41.355Z,36.90
2018-12-19T12:26:41.318Z,34.10
2018-12-19T12:27:41.282Z,34.80
2018-12-19T12:28:41.248Z,36.80
2018-12-19T12:29:41.213Z,38.70
2018-12-19T12:30:41.179Z,35.60
2018-12-19T12:31:41.145Z,36.80
2018-12-19T12:32:41.114Z,36.90
2018-12-19T12:33:41.074Z,37.30
2018-12-19T12:34:41.040Z,39.30
2018-12-19T12:35:41.004Z,36.80
2018-12-19T12:36:40.971Z,39.80
2018-12-19T12:37:40.935Z,37.20
2018-12-19T12:38:40.901Z,39.90
2018-12-19T12:39:40.868Z,37.00
2018-12-19T12:40:40.830Z,39.40
2018-12-19T12:41:40.797Z,36.70
2018-12-19T12:42:40.762Z,38.30
2018-12-19T12:43:40.727Z,36.30
2018-12-19T12:44:40.692Z,33.70
2018-12-19T12:45:40.660Z,36.40
2018-12-19T12:46:40.625Z,34.10
2018-12-19T12:47:40.595Z,33.50
2018-12-19T12:48:40.553Z,36.60
2018-12-19T12:49:40.519Z,36.30
2018-12-19T12:50:40.486Z,40.30
2018-12-19T12:51:40.450Z,37.10